Florencia — IBPD — position and weather

sailwx.info

Track history (hours):
 
Tides and Currents Weather Stations Pressure Air Temp Water Temp Dewpoint Dewpoint Depression Visibility Wind Speed Wind Dir Waves Ship Positions

Florencia

Last reported at 2015-Apr-01 00:22 UTC. Time now 2015-Apr-01 05:49 UTC.
Position N 41°33' E 002°46'.

Length 186 m; draft 6.4 m.

Type: Passenger vessel. MMSI: 247105900.

Date/timePositionNaut miles runAvg speedWind from/ knotsBaromVisibWave heightAir tempDewpointWater temp
2015-Apr-01 00:22N 41°33' E 002°46'2916.0
2015-Mar-31 22:33N 41°20' E 002°10'2 1.2
2015-Mar-31 21:16N 41°22' E 002°11'0 0.0
2015-Mar-31 20:30N 41°22' E 002°11'0 0.0
2015-Mar-31 19:32N 41°22' E 002°11'0 0.0
2015-Mar-31 18:22N 41°22' E 002°11'0 0.0
2015-Mar-31 17:22N 41°22' E 002°11'0 0.1
2015-Mar-31 16:33N 41°22' E 002°11'5 4.9
2015-Mar-31 15:32N 41°19' E 002°17'1818.4
2015-Mar-31 14:32N 41°29' E 002°38'2219.4
2015-Mar-31 13:23N 41°39' E 003°04'1618.9
2015-Mar-31 12:33N 41°49' E 003°21'2020.4
2015-Mar-31 11:33N 42°06' E 003°35'2220.2
2015-Mar-31 10:27N 42°25' E 003°50'1820.0
2015-Mar-31 09:33N 42°31' E 004°13'2920.2
2015-Mar-31 08:06N 42°42' E 004°50'1520.4
2015-Mar-31 07:23N 42°44' E 005°10'5620.0
2015-Mar-31 04:33N 42°55' E 006°25'2020.4
2015-Mar-31 03:33N 43°06' E 006°49'2020.3
2015-Mar-31 02:33N 43°19' E 007°10'2120.9
2015-Mar-31 01:33N 43°31' E 007°34'2120.8
2015-Mar-31 00:32N 43°44' E 007°57'2019.9
2015-Mar-30 23:33N 43°57' E 008°17'2020.2
2015-Mar-30 22:33N 44°15' E 008°31'4 4.2
2015-Mar-30 21:33N 44°19' E 008°30'0 0.0
2015-Mar-30 20:33N 44°19' E 008°30'0 0.0
2015-Mar-30 19:33N 44°19' E 008°30'0 0.3
2015-Mar-30 18:33N 44°19' E 008°29'0 0.1
2015-Mar-30 17:33N 44°19' E 008°29'0 0.0
2015-Mar-30 16:33N 44°19' E 008°29'0 0.0
2015-Mar-30 15:33N 44°19' E 008°29'0 0.0
2015-Mar-30 14:33N 44°19' E 008°29'0 0.0
2015-Mar-30 13:33N 44°19' E 008°29'0 0.0
2015-Mar-30 12:34N 44°19' E 008°29'0 0.0
2015-Mar-30 11:33N 44°19' E 008°29'0 0.0
2015-Mar-30 10:33N 44°19' E 008°29'0 0.0
2015-Mar-30 09:33N 44°19' E 008°29'0 0.0
2015-Mar-30 08:33N 44°19' E 008°29'0 0.0
2015-Mar-30 07:33N 44°19' E 008°29'0 0.0
2015-Mar-30 06:33N 44°19' E 008°29'0 0.0
2015-Mar-30 05:33N 44°19' E 008°29'0 0.0
2015-Mar-30 04:33N 44°19' E 008°29'0 0.0
2015-Mar-30 03:33N 44°19' E 008°29'0 0.0
2015-Mar-30 02:33N 44°19' E 008°29'0 0.0
2015-Mar-30 01:33N 44°19' E 008°29'0 0.0
2015-Mar-30 00:33N 44°19' E 008°29'0 0.0
2015-Mar-29 23:33N 44°19' E 008°29'0 0.1
2015-Mar-29 22:33N 44°19' E 008°29'0 0.2
2015-Mar-29 21:33N 44°19' E 008°30'0 0.0
2015-Mar-29 20:34N 44°19' E 008°30'9 8.9
2015-Mar-29 19:33N 44°10' E 008°28'5819.3
2015-Mar-29 16:33N 43°27' E 007°34'2019.8
2015-Mar-29 15:33N 43°14' E 007°14'1919.4
2015-Mar-29 14:33N 43°01' E 006°54'2019.8
2015-Mar-29 13:33N 42°50' E 006°31'6019.5
2015-Mar-29 10:28N 42°40' E 005°10'6019.9
2015-Mar-29 07:28N 42°33' E 003°50'9818.5
2015-Mar-29 02:09N 41°21' E 002°20'712.3
2015-Mar-29 01:33N 41°20' E 002°10'2 0.5
2015-Mar-28 21:07N 41°22' E 002°11'0 0.0
2015-Mar-28 20:28N 41°22' E 002°11'0 0.0
2015-Mar-28 19:31N 41°22' E 002°11'5 4.6
2015-Mar-28 18:29N 41°17' E 002°11'1919.0
2015-Mar-28 17:28N 41°26' E 002°34'2020.1
2015-Mar-28 16:28N 41°38' E 002°56'1920.0
2015-Mar-28 15:31N 41°49' E 003°17'2120.8
2015-Mar-28 14:31N 42°07' E 003°32'2020.9
2015-Mar-28 13:32N 42°26' E 003°41'1919.1
2015-Mar-28 12:33N 42°36' E 004°03'2020.4
2015-Mar-28 11:33N 42°42' E 004°29'2420.1
2015-Mar-28 10:21N 42°46' E 005°02'5720.2
2015-Mar-28 07:31N 42°56' E 006°18'2020.5
2015-Mar-28 06:33N 43°03' E 006°43'2120.7
2015-Mar-28 05:33N 43°16' E 007°06'2020.4
2015-Mar-28 04:33N 43°28' E 007°28'2120.6
2015-Mar-28 03:31N 43°41' E 007°52'2021.0
2015-Mar-28 02:33N 43°53' E 008°14'2121.2
2015-Mar-28 01:33N 44°11' E 008°30'8 7.6
2015-Mar-28 00:33N 44°19' E 008°30'0 0.0
2015-Mar-27 23:30N 44°19' E 008°30'0 0.0
2015-Mar-27 22:30N 44°19' E 008°30'0 0.0
2015-Mar-27 21:30N 44°19' E 008°30'0 0.0
2015-Mar-27 20:33N 44°19' E 008°30'0 0.0
2015-Mar-27 19:33N 44°19' E 008°30'1110.7
2015-Mar-27 18:33N 44°08' E 008°27'2019.7
2015-Mar-27 17:33N 43°53' E 008°10'2020.1
2015-Mar-27 16:34N 43°40' E 007°49'2020.2
2015-Mar-27 15:34N 43°27' E 007°27'2019.8
2015-Mar-27 14:34N 43°15' E 007°06'2019.5
2015-Mar-27 13:33N 43°03' E 006°45'1918.9
2015-Mar-27 12:34N 42°53' E 006°23'5919.2
2015-Mar-27 09:29N 42°38' E 005°05'1718.5
2015-Mar-27 08:33N 42°37' E 004°41'1919.2
2015-Mar-27 07:33N 42°35' E 004°15'1919.5
2015-Mar-27 06:33N 42°34' E 003°49'1616.3
2015-Mar-27 05:34N 42°28' E 003°29'2719.4
2015-Mar-27 04:11N 42°02' E 003°21'3718.7
2015-Mar-27 02:12N 41°35' E 002°48'1319.6
2015-Mar-27 01:33N 41°28' E 002°34'2019.5
2015-Mar-27 00:32N 41°17' E 002°11'5 3.7
2015-Mar-26 23:05N 41°22' E 002°11'0 0.0
2015-Mar-26 21:17N 41°22' E 002°11'6 2.0
2015-Mar-26 18:20N 41°18' E 002°17'1620.1
2015-Mar-26 17:33N 41°26' E 002°35'2920.5
2015-Mar-26 16:07N 41°42' E 003°08'1220.5
2015-Mar-26 15:33N 41°49' E 003°21'2020.8
2015-Mar-26 14:34N 42°07' E 003°34'2221.9
2015-Mar-26 13:33N 42°28' E 003°42'1917.7
2015-Mar-26 12:28N 42°41' E 004°02'1718.7
2015-Mar-26 11:33N 42°44' E 004°24'2220.5
2015-Mar-26 10:30N 42°47' E 004°54'1919.3
2015-Mar-26 09:29N 42°50' E 005°20'4420.0
2015-Mar-26 07:18N 42°55' E 006°19'1519.8
2015-Mar-26 06:33N 43°01' E 006°38'2120.9
2015-Mar-26 05:33N 43°13' E 007°01'2120.8
2015-Mar-26 04:33N 43°25' E 007°24'6120.5
2015-Mar-26 01:33N 44°08' E 008°26'1111.5
2015-Mar-26 00:33N 44°19' E 008°30'0 0.0
2015-Mar-25 23:33N 44°19' E 008°30'0 0.0
2015-Mar-25 22:33N 44°19' E 008°30'0 0.0
2015-Mar-25 21:33N 44°19' E 008°30'0 0.0
2015-Mar-25 20:33N 44°19' E 008°30'1 1.1
2015-Mar-25 19:33N 44°18' E 008°31'1414.3
2015-Mar-25 18:33N 44°05' E 008°24'3918.9
2015-Mar-25 16:28N 43°38' E 007°45'1718.9
2015-Mar-25 15:33N 43°28' E 007°25'1918.9
2015-Mar-25 14:33N 43°19' E 007°02'1919.0
2015-Mar-25 13:33N 43°08' E 006°40'11218.4
2015-Mar-25 07:30N 42°40' E 004°13'1818.8
2015-Mar-25 06:33N 42°39' E 003°48'5816.8
2015-Mar-25 03:06N 41°48' E 003°13'53 5.5
2015-Mar-24 17:22N 41°22' E 002°11'8 8.0
2015-Mar-24 16:21N 41°19' E 002°21'1918.9
2015-Mar-24 15:21N 41°27' E 002°43'2019.0
2015-Mar-24 14:19N 41°36' E 003°07'1719.6
2015-Mar-24 13:27N 41°44' E 003°27'2019.5
2015-Mar-24 12:27N 41°53' E 003°50'2017.8
2015-Mar-24 11:19N 42°03' E 004°14'1519.4
2015-Mar-24 10:33N 42°10' E 004°31'1818.1
2015-Mar-24 09:33N 42°18' E 004°53'2219.3
2015-Mar-24 08:27N 42°27' E 005°19'5719.7
2015-Mar-24 05:33N 42°53' E 006°28'2020.2
2015-Mar-24 04:33N 43°05' E 006°51'2020.1
2015-Mar-24 03:33N 43°17' E 007°12'2020.5
2015-Mar-24 02:33N 43°30' E 007°34'2520.9
2015-Mar-24 01:21N 43°46' E 008°01'1619.5
2015-Mar-24 00:33N 43°56' E 008°17'2020.0
2015-Mar-23 23:33N 44°13' E 008°31'5 4.7
2015-Mar-23 22:25N 44°19' E 008°30'0 0.0
2015-Mar-23 21:28N 44°19' E 008°30'0 0.0
2015-Mar-23 20:31N 44°19' E 008°30'0 0.0
2015-Mar-23 19:31N 44°19' E 008°30'0 0.0
2015-Mar-23 18:22N 44°19' E 008°30'0 0.0
2015-Mar-23 17:31N 44°19' E 008°30'0 0.0
2015-Mar-23 15:31N 44°19' E 008°30'0 0.0
2015-Mar-23 14:19N 44°19' E 008°30'0 0.0
2015-Mar-23 13:25N 44°19' E 008°30'0 0.0
2015-Mar-23 12:32N 44°19' E 008°30'0 0.2
2015-Mar-23 11:29N 44°19' E 008°30'0 0.0
2015-Mar-23 10:32N 44°19' E 008°30'0 0.0
2015-Mar-23 09:32N 44°19' E 008°30'0 0.0
2015-Mar-23 08:32N 44°19' E 008°30'0 0.0
2015-Mar-23 07:17N 44°19' E 008°30'0 0.0
2015-Mar-23 06:23N 44°19' E 008°30'0 0.2
2015-Mar-23 05:29N 44°19' E 008°30'0 0.0
2015-Mar-23 04:08N 44°19' E 008°30'0 0.0
2015-Mar-23 01:32N 44°19' E 008°30'0 0.0
2015-Mar-23 00:32N 44°19' E 008°30'0 0.0
2015-Mar-22 23:32N 44°19' E 008°30'0 0.0
2015-Mar-22 22:26N 44°19' E 008°30'0 0.0
2015-Mar-22 21:33N 44°19' E 008°30'0 0.0
2015-Mar-22 20:33N 44°19' E 008°30'0 0.0
2015-Mar-22 19:31N 44°19' E 008°30'3 3.5
2015-Mar-22 18:33N 44°15' E 008°31'5618.4
2015-Mar-22 15:31N 43°34' E 007°40'1818.3
2015-Mar-22 14:33N 43°23' E 007°21'1818.4
2015-Mar-22 13:34N 43°11' E 007°01'1817.8
2015-Mar-22 12:33N 42°60' E 006°42'  
Track history (hours):
 
Tides and Currents Weather Stations Pressure Air Temp Water Temp Dewpoint Dewpoint Depression Visibility Wind Speed Wind Dir Waves Ship Positions

Florencia

Last reported at 2015-Apr-01 00:22 UTC. Time now 2015-Apr-01 05:49 UTC.
Position N 41°33' E 002°46'.

Length 186 m; draft 6.4 m.

Type: Passenger vessel. MMSI: 247105900.

Date/timePositionNaut miles runAvg speedWind from/ knotsBaromVisibWave heightAir tempDewpointWater temp
2015-Apr-01 00:22N 41°33' E 002°46'2916.0
2015-Mar-31 22:33N 41°20' E 002°10'2 1.2
2015-Mar-31 21:16N 41°22' E 002°11'0 0.0
2015-Mar-31 20:30N 41°22' E 002°11'0 0.0
2015-Mar-31 19:32N 41°22' E 002°11'0 0.0
2015-Mar-31 18:22N 41°22' E 002°11'0 0.0
2015-Mar-31 17:22N 41°22' E 002°11'0 0.1
2015-Mar-31 16:33N 41°22' E 002°11'5 4.9
2015-Mar-31 15:32N 41°19' E 002°17'1818.4
2015-Mar-31 14:32N 41°29' E 002°38'2219.4
2015-Mar-31 13:23N 41°39' E 003°04'1618.9
2015-Mar-31 12:33N 41°49' E 003°21'2020.4
2015-Mar-31 11:33N 42°06' E 003°35'2220.2
2015-Mar-31 10:27N 42°25' E 003°50'1820.0
2015-Mar-31 09:33N 42°31' E 004°13'2920.2
2015-Mar-31 08:06N 42°42' E 004°50'1520.4
2015-Mar-31 07:23N 42°44' E 005°10'5620.0
2015-Mar-31 04:33N 42°55' E 006°25'2020.4
2015-Mar-31 03:33N 43°06' E 006°49'2020.3
2015-Mar-31 02:33N 43°19' E 007°10'2120.9
2015-Mar-31 01:33N 43°31' E 007°34'2120.8
2015-Mar-31 00:32N 43°44' E 007°57'2019.9
2015-Mar-30 23:33N 43°57' E 008°17'2020.2
2015-Mar-30 22:33N 44°15' E 008°31'4 4.2
2015-Mar-30 21:33N 44°19' E 008°30'0 0.0
2015-Mar-30 20:33N 44°19' E 008°30'0 0.0
2015-Mar-30 19:33N 44°19' E 008°30'0 0.3
2015-Mar-30 18:33N 44°19' E 008°29'0 0.1
2015-Mar-30 17:33N 44°19' E 008°29'0 0.0
2015-Mar-30 16:33N 44°19' E 008°29'0 0.0
2015-Mar-30 15:33N 44°19' E 008°29'0 0.0
2015-Mar-30 14:33N 44°19' E 008°29'0 0.0
2015-Mar-30 13:33N 44°19' E 008°29'0 0.0
2015-Mar-30 12:34N 44°19' E 008°29'0 0.0
2015-Mar-30 11:33N 44°19' E 008°29'0 0.0
2015-Mar-30 10:33N 44°19' E 008°29'0 0.0
2015-Mar-30 09:33N 44°19' E 008°29'0 0.0
2015-Mar-30 08:33N 44°19' E 008°29'0 0.0
2015-Mar-30 07:33N 44°19' E 008°29'0 0.0
2015-Mar-30 06:33N 44°19' E 008°29'0 0.0
2015-Mar-30 05:33N 44°19' E 008°29'0 0.0
2015-Mar-30 04:33N 44°19' E 008°29'0 0.0
2015-Mar-30 03:33N 44°19' E 008°29'0 0.0
2015-Mar-30 02:33N 44°19' E 008°29'0 0.0
2015-Mar-30 01:33N 44°19' E 008°29'0 0.0
2015-Mar-30 00:33N 44°19' E 008°29'0 0.0
2015-Mar-29 23:33N 44°19' E 008°29'0 0.1
2015-Mar-29 22:33N 44°19' E 008°29'0 0.2
2015-Mar-29 21:33N 44°19' E 008°30'0 0.0
2015-Mar-29 20:34N 44°19' E 008°30'9 8.9
2015-Mar-29 19:33N 44°10' E 008°28'5819.3
2015-Mar-29 16:33N 43°27' E 007°34'2019.8
2015-Mar-29 15:33N 43°14' E 007°14'1919.4
2015-Mar-29 14:33N 43°01' E 006°54'2019.8
2015-Mar-29 13:33N 42°50' E 006°31'6019.5
2015-Mar-29 10:28N 42°40' E 005°10'6019.9
2015-Mar-29 07:28N 42°33' E 003°50'9818.5
2015-Mar-29 02:09N 41°21' E 002°20'712.3
2015-Mar-29 01:33N 41°20' E 002°10'2 0.5
2015-Mar-28 21:07N 41°22' E 002°11'0 0.0
2015-Mar-28 20:28N 41°22' E 002°11'0 0.0
2015-Mar-28 19:31N 41°22' E 002°11'5 4.6
2015-Mar-28 18:29N 41°17' E 002°11'1919.0
2015-Mar-28 17:28N 41°26' E 002°34'2020.1
2015-Mar-28 16:28N 41°38' E 002°56'1920.0
2015-Mar-28 15:31N 41°49' E 003°17'2120.8
2015-Mar-28 14:31N 42°07' E 003°32'2020.9
2015-Mar-28 13:32N 42°26' E 003°41'1919.1
2015-Mar-28 12:33N 42°36' E 004°03'2020.4
2015-Mar-28 11:33N 42°42' E 004°29'2420.1
2015-Mar-28 10:21N 42°46' E 005°02'5720.2
2015-Mar-28 07:31N 42°56' E 006°18'2020.5
2015-Mar-28 06:33N 43°03' E 006°43'2120.7
2015-Mar-28 05:33N 43°16' E 007°06'2020.4
2015-Mar-28 04:33N 43°28' E 007°28'2120.6
2015-Mar-28 03:31N 43°41' E 007°52'2021.0
2015-Mar-28 02:33N 43°53' E 008°14'2121.2
2015-Mar-28 01:33N 44°11' E 008°30'8 7.6
2015-Mar-28 00:33N 44°19' E 008°30'0 0.0
2015-Mar-27 23:30N 44°19' E 008°30'0 0.0
2015-Mar-27 22:30N 44°19' E 008°30'0 0.0
2015-Mar-27 21:30N 44°19' E 008°30'0 0.0
2015-Mar-27 20:33N 44°19' E 008°30'0 0.0
2015-Mar-27 19:33N 44°19' E 008°30'1110.7
2015-Mar-27 18:33N 44°08' E 008°27'2019.7
2015-Mar-27 17:33N 43°53' E 008°10'2020.1
2015-Mar-27 16:34N 43°40' E 007°49'2020.2
2015-Mar-27 15:34N 43°27' E 007°27'2019.8
2015-Mar-27 14:34N 43°15' E 007°06'2019.5
2015-Mar-27 13:33N 43°03' E 006°45'1918.9
2015-Mar-27 12:34N 42°53' E 006°23'5919.2
2015-Mar-27 09:29N 42°38' E 005°05'1718.5
2015-Mar-27 08:33N 42°37' E 004°41'1919.2
2015-Mar-27 07:33N 42°35' E 004°15'1919.5
2015-Mar-27 06:33N 42°34' E 003°49'1616.3
2015-Mar-27 05:34N 42°28' E 003°29'2719.4
2015-Mar-27 04:11N 42°02' E 003°21'3718.7
2015-Mar-27 02:12N 41°35' E 002°48'1319.6
2015-Mar-27 01:33N 41°28' E 002°34'2019.5
2015-Mar-27 00:32N 41°17' E 002°11'5 3.7
2015-Mar-26 23:05N 41°22' E 002°11'0 0.0
2015-Mar-26 21:17N 41°22' E 002°11'6 2.0
2015-Mar-26 18:20N 41°18' E 002°17'1620.1
2015-Mar-26 17:33N 41°26' E 002°35'2920.5
2015-Mar-26 16:07N 41°42' E 003°08'1220.5
2015-Mar-26 15:33N 41°49' E 003°21'2020.8
2015-Mar-26 14:34N 42°07' E 003°34'2221.9
2015-Mar-26 13:33N 42°28' E 003°42'1917.7
2015-Mar-26 12:28N 42°41' E 004°02'1718.7
2015-Mar-26 11:33N 42°44' E 004°24'2220.5
2015-Mar-26 10:30N 42°47' E 004°54'1919.3
2015-Mar-26 09:29N 42°50' E 005°20'4420.0
2015-Mar-26 07:18N 42°55' E 006°19'1519.8
2015-Mar-26 06:33N 43°01' E 006°38'2120.9
2015-Mar-26 05:33N 43°13' E 007°01'2120.8
2015-Mar-26 04:33N 43°25' E 007°24'6120.5
2015-Mar-26 01:33N 44°08' E 008°26'1111.5
2015-Mar-26 00:33N 44°19' E 008°30'0 0.0
2015-Mar-25 23:33N 44°19' E 008°30'0 0.0
2015-Mar-25 22:33N 44°19' E 008°30'0 0.0
2015-Mar-25 21:33N 44°19' E 008°30'0 0.0
2015-Mar-25 20:33N 44°19' E 008°30'1 1.1
2015-Mar-25 19:33N 44°18' E 008°31'1414.3
2015-Mar-25 18:33N 44°05' E 008°24'3918.9
2015-Mar-25 16:28N 43°38' E 007°45'1718.9
2015-Mar-25 15:33N 43°28' E 007°25'1918.9
2015-Mar-25 14:33N 43°19' E 007°02'1919.0
2015-Mar-25 13:33N 43°08' E 006°40'11218.4
2015-Mar-25 07:30N 42°40' E 004°13'1818.8
2015-Mar-25 06:33N 42°39' E 003°48'5816.8
2015-Mar-25 03:06N 41°48' E 003°13'53 5.5
2015-Mar-24 17:22N 41°22' E 002°11'8 8.0
2015-Mar-24 16:21N 41°19' E 002°21'1918.9
2015-Mar-24 15:21N 41°27' E 002°43'2019.0
2015-Mar-24 14:19N 41°36' E 003°07'1719.6
2015-Mar-24 13:27N 41°44' E 003°27'2019.5
2015-Mar-24 12:27N 41°53' E 003°50'2017.8
2015-Mar-24 11:19N 42°03' E 004°14'1519.4
2015-Mar-24 10:33N 42°10' E 004°31'1818.1
2015-Mar-24 09:33N 42°18' E 004°53'2219.3
2015-Mar-24 08:27N 42°27' E 005°19'5719.7
2015-Mar-24 05:33N 42°53' E 006°28'2020.2
2015-Mar-24 04:33N 43°05' E 006°51'2020.1
2015-Mar-24 03:33N 43°17' E 007°12'2020.5
2015-Mar-24 02:33N 43°30' E 007°34'2520.9
2015-Mar-24 01:21N 43°46' E 008°01'1619.5
2015-Mar-24 00:33N 43°56' E 008°17'2020.0
2015-Mar-23 23:33N 44°13' E 008°31'5 4.7
2015-Mar-23 22:25N 44°19' E 008°30'0 0.0
2015-Mar-23 21:28N 44°19' E 008°30'0 0.0
2015-Mar-23 20:31N 44°19' E 008°30'0 0.0
2015-Mar-23 19:31N 44°19' E 008°30'0 0.0
2015-Mar-23 18:22N 44°19' E 008°30'0 0.0
2015-Mar-23 17:31N 44°19' E 008°30'0 0.0
2015-Mar-23 15:31N 44°19' E 008°30'0 0.0
2015-Mar-23 14:19N 44°19' E 008°30'0 0.0
2015-Mar-23 13:25N 44°19' E 008°30'0 0.0
2015-Mar-23 12:32N 44°19' E 008°30'0 0.2
2015-Mar-23 11:29N 44°19' E 008°30'0 0.0
2015-Mar-23 10:32N 44°19' E 008°30'0 0.0
2015-Mar-23 09:32N 44°19' E 008°30'0 0.0
2015-Mar-23 08:32N 44°19' E 008°30'0 0.0
2015-Mar-23 07:17N 44°19' E 008°30'0 0.0
2015-Mar-23 06:23N 44°19' E 008°30'0 0.2
2015-Mar-23 05:29N 44°19' E 008°30'0 0.0
2015-Mar-23 04:08N 44°19' E 008°30'0 0.0
2015-Mar-23 01:32N 44°19' E 008°30'0 0.0
2015-Mar-23 00:32N 44°19' E 008°30'0 0.0
2015-Mar-22 23:32N 44°19' E 008°30'0 0.0
2015-Mar-22 22:26N 44°19' E 008°30'0 0.0
2015-Mar-22 21:33N 44°19' E 008°30'0 0.0
2015-Mar-22 20:33N 44°19' E 008°30'0 0.0
2015-Mar-22 19:31N 44°19' E 008°30'3 3.5
2015-Mar-22 18:33N 44°15' E 008°31'5618.4
2015-Mar-22 15:31N 43°34' E 007°40'1818.3
2015-Mar-22 14:33N 43°23' E 007°21'1818.4
2015-Mar-22 13:34N 43°11' E 007°01'1817.8
2015-Mar-22 12:33N 42°60' E 006°42'  

Dump ship's entire track history